Time;durP1;ratioP1;P1;durP2;ratioP2;P2;SDS_P1;SDS_P2;PMS_P1;PMS_P2;Temp;Humidity;BMP_temperature;BMP_pressure;BME280_temperature;BME280_humidity;BME280_pressure;Samples;Min_cycle;Max_cycle;Signal;HPM_P1;HPM_P2
2022/11/12 00:00:44;;;;;;;1.13;1.13;;;;;;;6.78;100.00;101962.72;5003007;28;21019;-52
2022/11/12 00:03:10;;;;;;;0.70;0.67;;;;;;;6.42;100.00;101971.00;5011918;28;20503;-52
2022/11/12 00:05:37;;;;;;;1.43;1.00;;;;;;;6.68;100.00;101972.28;5007770;28;20473;-52
2022/11/12 00:08:03;;;;;;;2.10;2.00;;;;;;;6.61;100.00;101972.19;5002922;28;20511;-51
2022/11/12 00:10:31;;;;;;;4.03;1.70;;;;;;;6.61;100.00;101972.19;5011886;28;20492;-52
2022/11/12 00:12:58;;;;;;;2.03;1.93;;;;;;;6.49;100.00;101964.97;5001308;28;20465;-52
2022/11/12 00:15:25;;;;;;;1.00;1.00;;;;;;;6.65;100.00;101972.25;5004778;28;20937;-52
2022/11/12 00:17:51;;;;;;;1.47;0.70;;;;;;;6.93;100.00;101969.97;5003034;28;20522;-52
2022/11/12 00:20:18;;;;;;;3.20;1.90;;;;;;;7.29;100.00;101965.16;5011393;28;20452;-52
2022/11/12 00:22:44;;;;;;;1.63;1.53;;;;;;;7.37;100.00;101973.19;5007916;28;20492;-52
2022/11/12 00:25:11;;;;;;;1.20;1.10;;;;;;;6.78;100.00;101978.59;4998495;28;20460;-52
2022/11/12 00:27:37;;;;;;;2.07;1.93;;;;;;;6.95;100.00;101984.09;5011742;28;20526;-52
2022/11/12 00:30:05;;;;;;;3.70;1.47;;;;;;;7.05;100.00;101981.59;5006677;28;20464;-52
2022/11/12 00:32:34;;;;;;;1.60;1.50;;;;;;;7.10;100.00;101990.47;4992218;28;20516;-53
2022/11/12 00:35:01;;;;;;;1.93;0.60;;;;;;;6.76;100.00;101982.97;5010191;28;20511;-53
2022/11/12 00:37:28;;;;;;;2.80;1.90;;;;;;;6.63;100.00;101986.28;5011261;28;20483;-53
2022/11/12 00:39:54;;;;;;;2.50;1.80;;;;;;;6.84;100.00;101984.84;5010931;28;20457;-53
2022/11/12 00:42:21;;;;;;;2.40;1.73;;;;;;;6.91;100.00;101983.19;5023846;28;20454;-52
2022/11/12 00:44:48;;;;;;;1.40;1.30;;;;;;;7.10;100.00;101982.53;5005825;28;20524;-53
2022/11/12 00:47:15;;;;;;;2.23;2.13;;;;;;;6.77;100.00;101993.56;5004100;28;20535;-53
2022/11/12 00:49:42;;;;;;;6.40;2.40;;;;;;;6.67;100.00;101998.69;5004575;28;20456;-53
2022/11/12 00:52:08;;;;;;;1.43;0.93;;;;;;;6.76;100.00;102002.34;5004328;28;20542;-52
2022/11/12 00:54:34;;;;;;;1.43;1.33;;;;;;;6.68;100.00;101992.53;4997351;28;20524;-52
2022/11/12 00:57:01;;;;;;;1.03;0.93;;;;;;;6.87;100.00;101997.22;5004468;28;20476;-53
2022/11/12 00:59:27;;;;;;;2.27;1.23;;;;;;;6.96;100.00;101997.34;5010656;28;20452;-53
2022/11/12 01:01:53;;;;;;;3.23;2.10;;;;;;;7.18;100.00;101997.63;4997311;28;20492;-52
2022/11/12 01:04:20;;;;;;;1.20;1.00;;;;;;;6.91;100.00;101993.75;5010794;28;20461;-52
2022/11/12 01:06:46;;;;;;;1.73;1.60;;;;;;;7.18;100.00;101990.59;5009892;28;20554;-53
2022/11/12 01:09:13;;;;;;;1.23;0.87;;;;;;;6.96;100.00;101989.41;4998121;28;20551;-53
2022/11/12 01:11:39;;;;;;;1.03;0.90;;;;;;;7.02;100.00;101992.16;5010491;28;20492;-53
2022/11/12 01:14:08;;;;;;;3.00;1.97;;;;;;;7.18;100.00;101992.34;5003220;28;20457;-53
2022/11/12 01:16:39;;;;;;;9.83;1.90;;;;;;;6.84;100.00;101983.94;5004157;28;20477;-52
2022/11/12 01:19:08;;;;;;;1.03;1.00;;;;;;;6.79;100.00;101991.81;5010715;28;20449;-52
2022/11/12 01:21:38;;;;;;;1.67;1.57;;;;;;;6.69;100.00;101981.09;5000557;28;20515;-52
2022/11/12 01:24:05;;;;;;;0.60;0.60;;;;;;;6.58;100.00;101985.31;5000919;28;20929;-52
2022/11/12 01:26:32;;;;;;;3.30;1.60;;;;;;;6.66;100.00;101981.06;5006579;28;20469;-52
2022/11/12 01:28:58;;;;;;;1.23;1.07;;;;;;;6.43;100.00;101983.34;5010107;28;20480;-52
2022/11/12 01:31:28;;;;;;;2.10;0.77;;;;;;;6.33;100.00;101978.78;5006750;28;20548;-53
2022/11/12 01:33:58;;;;;;;1.03;1.03;;;;;;;6.83;100.00;101971.59;5001150;28;21020;-53
2022/11/12 01:36:30;;;;;;;2.20;0.90;;;;;;;6.69;100.00;101974.06;5010008;28;20527;-51
2022/11/12 01:38:56;;;;;;;1.27;1.17;;;;;;;6.91;100.00;101969.97;4998668;28;20458;-52
2022/11/12 01:41:28;;;;;;;9.30;2.10;;;;;;;6.36;100.00;101977.09;5012932;28;20498;-52
2022/11/12 01:44:18;;;;;;;1.03;0.93;;;;;;;6.54;100.00;101966.78;5017576;28;20452;-52
2022/11/12 01:47:15;;;;;;;2.00;1.90;;;;;;;6.45;100.00;101968.44;5009203;28;20484;-52
2022/11/12 01:49:48;;;;;;;1.27;1.20;;;;;;;6.46;100.00;101968.44;5009361;28;20507;-52
2022/11/12 01:52:23;;;;;;;1.97;1.70;;;;;;;6.76;100.00;101968.00;5008395;28;20495;-52
2022/11/12 01:54:54;;;;;;;0.53;0.53;;;;;;;6.70;100.00;101972.28;4998374;28;20448;-52
2022/11/12 01:57:32;;;;;;;2.67;2.57;;;;;;;6.90;100.00;101967.31;4996700;28;20928;-52
2022/11/12 02:00:06;;;;;;;1.33;0.43;;;;;;;6.92;100.00;101968.22;5010197;28;20456;-52
2022/11/12 02:02:34;;;;;;;0.70;0.60;;;;;;;7.19;100.00;101962.38;5004898;28;20446;-52
2022/11/12 02:05:03;;;;;;;2.03;0.70;;;;;;;7.12;100.00;101969.34;4997151;28;20462;-52
2022/11/12 02:07:31;;;;;;;0.87;0.87;;;;;;;6.97;100.00;101959.47;5009031;28;20666;-51
2022/11/12 02:10:00;;;;;;;4.53;2.30;;;;;;;7.06;100.00;101966.63;5009628;28;20535;-51
2022/11/12 02:15:13;;;;;;;2.03;1.87;;;;;;;6.84;100.00;101960.16;5002965;28;20467;-52
2022/11/12 02:17:39;;;;;;;1.67;1.57;;;;;;;6.86;100.00;101963.75;4999298;28;20473;-50
2022/11/12 02:20:10;;;;;;;1.13;1.00;;;;;;;6.85;100.00;101961.94;5009479;28;20456;-51
2022/11/12 02:22:37;;;;;;;3.30;0.70;;;;;;;6.98;100.00;101960.34;5005939;28;21004;-51
2022/11/12 02:25:04;;;;;;;4.47;1.10;;;;;;;7.08;100.00;101959.59;4983655;28;20461;-51
2022/11/12 02:27:31;;;;;;;1.33;0.90;;;;;;;7.05;100.00;101954.28;5007854;28;20893;-51
2022/11/12 02:29:57;;;;;;;2.00;1.43;;;;;;;6.69;100.00;101957.31;5008607;28;20456;-51
2022/11/12 02:32:24;;;;;;;2.83;1.53;;;;;;;7.22;100.00;101952.72;5010054;28;20492;-51
2022/11/12 02:34:51;;;;;;;7.00;1.43;;;;;;;7.13;100.00;101948.25;4988905;28;20457;-51
2022/11/12 02:37:18;;;;;;;0.80;0.80;;;;;;;6.82;100.00;101946.94;4999614;28;20992;-51
2022/11/12 02:39:44;;;;;;;1.40;1.33;;;;;;;6.92;100.00;101952.34;5005705;28;20882;-51
2022/11/12 02:42:10;;;;;;;1.87;0.60;;;;;;;7.00;100.00;101961.28;5011609;28;20893;-51
2022/11/12 02:44:37;;;;;;;1.37;1.27;;;;;;;7.20;100.00;101954.47;4988958;28;20458;-51
2022/11/12 02:47:03;;;;;;;1.10;1.10;;;;;;;7.12;100.00;101945.53;4994192;28;20484;-51
2022/11/12 02:49:29;;;;;;;1.27;1.17;;;;;;;7.05;100.00;101956.94;5009031;28;20615;-51
2022/11/12 02:51:56;;;;;;;0.80;0.80;;;;;;;6.95;100.00;101953.28;5008909;28;20484;-51
2022/11/12 02:54:22;;;;;;;1.03;0.93;;;;;;;6.55;100.00;101949.19;4995593;28;20452;-51
2022/11/12 02:56:49;;;;;;;5.00;1.77;;;;;;;6.51;100.00;101950.91;5009146;28;20472;-51
2022/11/12 02:59:15;;;;;;;1.93;1.83;;;;;;;6.37;100.00;101952.44;5004386;28;20532;-50
2022/11/12 03:01:41;;;;;;;2.00;1.90;;;;;;;6.60;100.00;101936.94;5000570;28;20980;-51
2022/11/12 03:04:08;;;;;;;1.33;1.23;;;;;;;6.32;100.00;101940.06;5003945;28;20480;-51
2022/11/12 03:06:34;;;;;;;1.90;1.37;;;;;;;6.30;100.00;101942.63;5000642;28;20913;-52
2022/11/12 03:09:01;;;;;;;1.50;1.20;;;;;;;6.54;100.00;101945.66;5008750;28;20456;-51
2022/11/12 03:11:27;;;;;;;0.93;0.93;;;;;;;6.56;100.00;101937.75;5002167;28;20499;-51
2022/11/12 03:13:53;;;;;;;1.60;1.50;;;;;;;6.60;100.00;101933.41;4995878;28;20453;-52
2022/11/12 03:16:20;;;;;;;1.50;1.40;;;;;;;6.89;100.00;101940.00;5008994;28;20484;-51
2022/11/12 03:18:46;;;;;;;1.00;1.00;;;;;;;6.62;100.00;101942.25;5003681;28;20453;-51
2022/11/12 03:21:12;;;;;;;2.27;2.07;;;;;;;6.28;100.00;101939.09;5000592;28;20452;-51
2022/11/12 03:23:41;;;;;;;1.87;1.77;;;;;;;6.34;100.00;101940.97;4999457;28;20449;-51
2022/11/12 03:26:07;;;;;;;1.40;1.30;;;;;;;6.35;100.00;101940.97;5001250;28;20474;-52
2022/11/12 03:28:34;;;;;;;2.50;1.67;;;;;;;6.20;100.00;101930.19;5008875;28;20456;-51
2022/11/12 03:31:01;;;;;;;0.70;0.70;;;;;;;6.38;100.00;101934.84;4997818;28;20461;-51
2022/11/12 03:33:27;;;;;;;1.27;1.17;;;;;;;6.27;100.00;101936.44;5009113;28;20456;-50
2022/11/12 03:35:54;;;;;;;2.20;2.10;;;;;;;6.20;100.00;101931.06;5008356;28;21067;-51
2022/11/12 03:38:20;;;;;;;0.77;0.63;;;;;;;6.48;100.00;101926.19;4996114;28;20456;-51
2022/11/12 03:40:47;;;;;;;1.63;1.53;;;;;;;6.38;100.00;101926.94;5012505;28;20457;-53
2022/11/12 03:43:14;;;;;;;1.20;1.10;;;;;;;6.27;100.00;101920.59;5005419;28;20504;-51
2022/11/12 03:45:41;;;;;;;7.17;1.67;;;;;;;6.54;100.00;101916.59;5005635;28;20548;-51
2022/11/12 03:48:07;;;;;;;0.63;0.60;;;;;;;6.55;100.00;101917.47;5012077;28;20460;-51
2022/11/12 03:50:33;;;;;;;1.87;1.77;;;;;;;6.65;100.00;101916.75;4999097;28;20457;-51
2022/11/12 03:53:00;;;;;;;0.40;0.40;;;;;;;6.07;100.00;101921.19;5005056;28;20604;-50
2022/11/12 03:55:27;;;;;;;1.67;1.23;;;;;;;6.11;100.00;101919.47;5005034;28;21015;-50
2022/11/12 03:57:55;;;;;;;5.23;1.30;;;;;;;6.38;100.00;101925.16;5005718;28;20461;-51
2022/11/12 04:00:23;;;;;;;1.40;0.90;;;;;;;5.97;100.00;101934.19;5005553;28;20966;-51
2022/11/12 04:02:49;;;;;;;0.80;0.80;;;;;;;6.07;100.00;101926.47;5004722;28;20519;-51
2022/11/12 04:10:48;;;;;;;1.60;0.80;;;;;;;6.33;100.00;101918.94;4998461;28;21039;-51
2022/11/12 04:13:28;;;;;;;1.47;1.37;;;;;;;5.91;100.00;101924.44;5011661;28;20527;-51
2022/11/12 04:21:50;;;;;;;0.60;0.60;;;;;;;6.41;100.00;101926.97;5011429;28;20449;-51
2022/11/12 04:27:43;;;;;;;0.43;0.43;;;;;;;6.68;100.00;101926.47;5003535;28;20526;-51
2022/11/12 04:30:15;;;;;;;0.73;0.73;;;;;;;6.60;100.00;101922.84;5005681;28;20472;-51
2022/11/12 04:32:49;;;;;;;0.70;0.70;;;;;;;6.45;100.00;101926.16;5011745;28;20492;-52
2022/11/12 04:35:17;;;;;;;2.53;0.63;;;;;;;6.65;100.00;101921.16;4998159;28;20456;-51
2022/11/12 04:37:45;;;;;;;0.60;0.60;;;;;;;6.61;100.00;101920.22;4997800;28;20461;-51
2022/11/12 04:45:52;;;;;;;2.10;1.37;;;;;;;6.32;100.00;101925.09;4999446;28;20997;-51
2022/11/12 04:48:20;;;;;;;1.03;1.03;;;;;;;6.02;100.00;101929.88;5011168;28;20985;-50
2022/11/12 04:50:51;;;;;;;0.50;0.40;;;;;;;6.27;100.00;101934.69;4995381;28;20457;-50
2022/11/12 04:53:18;;;;;;;1.67;1.57;;;;;;;6.11;100.00;101936.19;4993798;28;20564;-52
2022/11/12 04:55:44;;;;;;;2.80;1.23;;;;;;;6.26;100.00;101929.38;5007680;28;20476;-51
2022/11/12 04:58:10;;;;;;;0.60;0.60;;;;;;;6.06;100.00;101935.25;5002232;28;20458;-51
2022/11/12 05:00:37;;;;;;;1.27;1.17;;;;;;;6.39;100.00;101941.91;5007153;28;20460;-51
2022/11/12 05:03:03;;;;;;;7.00;1.03;;;;;;;6.33;100.00;101929.50;5001468;28;20457;-50
2022/11/12 05:05:30;;;;;;;6.73;1.80;;;;;;;6.59;100.00;101931.66;5006906;28;20468;-52
2022/11/12 05:08:01;;;;;;;0.50;0.50;;;;;;;6.71;100.00;101937.97;5010833;28;20909;-51
2022/11/12 05:10:28;;;;;;;1.00;0.90;;;;;;;6.77;100.00;101942.47;4997355;28;20456;-51
2022/11/12 05:12:55;;;;;;;3.50;0.60;;;;;;;6.78;100.00;101944.25;5000730;28;20488;-50
2022/11/12 05:15:21;;;;;;;1.10;1.10;;;;;;;6.71;100.00;101942.34;5007748;28;20452;-49
2022/11/12 05:17:48;;;;;;;1.10;1.10;;;;;;;6.70;100.00;101936.19;5011023;28;20483;-50
2022/11/12 05:20:16;;;;;;;1.40;1.10;;;;;;;6.75;100.00;101939.81;4997521;28;20459;-51
2022/11/12 05:22:43;;;;;;;0.67;0.60;;;;;;;6.81;100.00;101938.97;5006342;28;20853;-51
2022/11/12 05:25:29;;;;;;;0.73;0.53;;;;;;;6.67;100.00;101938.78;4997695;28;20537;-51
2022/11/12 05:27:55;;;;;;;0.80;0.80;;;;;;;6.72;100.00;101941.53;4979740;28;20891;-50
2022/11/12 05:30:22;;;;;;;1.63;1.47;;;;;;;6.76;100.00;101938.94;5010282;28;20456;-52
2022/11/12 05:32:48;;;;;;;1.37;1.27;;;;;;;6.70;100.00;101941.47;4981098;28;20485;-50
2022/11/12 05:35:15;;;;;;;1.17;1.17;;;;;;;6.74;100.00;101945.06;4997392;28;20530;-51
2022/11/12 05:37:42;;;;;;;1.93;0.70;;;;;;;6.60;100.00;101933.41;4996963;28;20457;-52
2022/11/12 05:40:09;;;;;;;4.77;3.30;;;;;;;6.73;100.00;101936.25;5010324;28;20499;-50
2022/11/12 05:42:35;;;;;;;1.73;1.63;;;;;;;6.53;100.00;101937.72;5023017;28;20451;-50
2022/11/12 05:45:02;;;;;;;2.10;1.30;;;;;;;6.47;100.00;101943.81;5002702;28;20951;-50
2022/11/12 05:47:28;;;;;;;1.10;1.10;;;;;;;6.38;100.00;101940.13;5004632;28;20546;-50
2022/11/12 05:49:55;;;;;;;6.10;1.80;;;;;;;6.50;100.00;101940.31;5002601;28;20510;-51
2022/11/12 05:52:21;;;;;;;0.40;0.40;;;;;;;6.61;100.00;101938.72;5003975;28;20546;-50
2022/11/12 05:54:47;;;;;;;0.87;0.87;;;;;;;6.73;100.00;101944.19;4997803;28;20946;-50
2022/11/12 05:57:14;;;;;;;1.70;1.40;;;;;;;6.50;100.00;101942.97;5009620;28;20530;-51
2022/11/12 05:59:40;;;;;;;1.40;1.30;;;;;;;6.35;100.00;101942.72;5007732;28;21012;-51
2022/11/12 06:02:06;;;;;;;2.60;0.70;;;;;;;5.89;100.00;101942.84;5009686;28;20455;-50
2022/11/12 06:04:33;;;;;;;1.07;1.07;;;;;;;5.82;100.00;101943.59;5009704;28;20456;-54
2022/11/12 06:07:02;;;;;;;1.97;1.03;;;;;;;5.66;100.00;101938.91;5003316;28;20483;-51
2022/11/12 06:09:28;;;;;;;1.23;1.13;;;;;;;5.85;100.00;101941.00;5001715;28;20502;-50
2022/11/12 06:11:55;;;;;;;0.87;0.83;;;;;;;5.73;100.00;101946.06;5007945;28;20492;-59
2022/11/12 06:14:21;;;;;;;1.33;1.00;;;;;;;5.60;100.00;101955.50;4999029;28;20460;-51
2022/11/12 06:16:47;;;;;;;1.37;0.80;;;;;;;5.59;100.00;101959.00;5009959;28;20920;-51
2022/11/12 06:19:14;;;;;;;0.50;0.40;;;;;;;5.85;100.00;101963.84;5001364;28;20876;-51
2022/11/12 06:21:40;;;;;;;1.00;1.00;;;;;;;5.75;100.00;101957.50;5004642;28;20514;-51
2022/11/12 06:24:07;;;;;;;0.93;0.93;;;;;;;5.67;100.00;101966.19;5005006;28;20444;-51
2022/11/12 06:26:33;;;;;;;0.43;0.37;;;;;;;5.91;100.00;101967.53;5006218;28;20479;-51
2022/11/12 06:28:59;;;;;;;0.43;0.40;;;;;;;6.27;100.00;101970.75;5008088;28;20958;-52
2022/11/12 06:31:26;;;;;;;0.60;0.47;;;;;;;6.36;100.00;101969.16;5004673;28;20460;-51
2022/11/12 06:33:52;;;;;;;1.63;0.60;;;;;;;6.47;100.00;101964.06;5006851;28;20488;-52
2022/11/12 06:36:19;;;;;;;0.77;0.77;;;;;;;6.46;100.00;101965.81;5009143;28;20480;-51
2022/11/12 06:38:46;;;;;;;0.73;0.60;;;;;;;6.69;100.00;101960.84;5000440;28;20452;-51
2022/11/12 06:41:13;;;;;;;0.50;0.50;;;;;;;6.59;100.00;101960.72;5000080;28;20448;-53
2022/11/12 06:43:40;;;;;;;1.07;0.97;;;;;;;6.65;100.00;101968.72;5018995;28;20507;-51
2022/11/12 06:46:11;;;;;;;3.50;1.77;;;;;;;6.62;100.00;101964.28;4996279;28;20472;-51
2022/11/12 06:48:38;;;;;;;1.67;1.60;;;;;;;6.61;100.00;101961.63;5009212;28;20463;-53
2022/11/12 06:51:06;;;;;;;1.53;1.43;;;;;;;6.62;100.00;101958.09;5003376;28;20461;-51
2022/11/12 06:53:33;;;;;;;2.00;0.93;;;;;;;6.75;100.00;101965.34;4992963;28;20501;-51
2022/11/12 06:56:05;;;;;;;0.50;0.50;;;;;;;6.70;100.00;101972.28;5008872;28;20480;-51
2022/11/12 06:58:32;;;;;;;1.10;1.10;;;;;;;6.59;100.00;101973.91;4997097;28;20457;-51
2022/11/12 07:01:07;;;;;;;1.00;1.00;;;;;;;6.80;100.00;101976.84;5008203;28;20452;-51
2022/11/12 07:03:38;;;;;;;1.60;1.50;;;;;;;6.79;100.00;101978.59;5008915;28;20547;-52
2022/11/12 07:06:10;;;;;;;3.90;0.70;;;;;;;6.62;100.00;101977.47;5008988;28;20484;-52
2022/11/12 07:08:37;;;;;;;3.03;1.03;;;;;;;6.81;100.00;101976.88;5006382;28;20461;-52
2022/11/12 07:11:05;;;;;;;0.83;0.83;;;;;;;6.84;100.00;101976.00;5008209;28;20452;-51
2022/11/12 07:13:33;;;;;;;1.50;1.40;;;;;;;6.79;100.00;101977.72;5007876;28;20493;-50
2022/11/12 07:16:01;;;;;;;0.93;0.80;;;;;;;6.77;100.00;101976.81;5001623;28;20993;-52
2022/11/12 07:18:28;;;;;;;0.70;0.70;;;;;;;6.74;100.00;101982.94;5012406;28;20467;-52
2022/11/12 07:21:03;;;;;;;4.43;1.33;;;;;;;6.86;100.00;101986.63;5012883;28;20452;-52
2022/11/12 07:23:31;;;;;;;0.80;0.80;;;;;;;6.86;100.00;101990.16;5005980;28;20453;-52
2022/11/12 07:26:13;;;;;;;1.70;1.67;;;;;;;6.86;100.00;101982.25;5006424;28;20473;-52
2022/11/12 07:28:40;;;;;;;2.50;2.00;;;;;;;6.80;100.00;101987.41;5004862;28;20843;-51
2022/11/12 07:31:10;;;;;;;0.87;0.77;;;;;;;6.72;100.00;101982.03;5005463;28;20456;-52
2022/11/12 07:33:37;;;;;;;0.60;0.50;;;;;;;6.80;100.00;101985.66;5003658;28;20606;-52
2022/11/12 07:36:09;;;;;;;1.30;1.10;;;;;;;6.95;100.00;101984.09;5004712;28;20538;-52
2022/11/12 07:38:38;;;;;;;1.83;1.67;;;;;;;7.04;100.00;101984.25;5008608;28;20479;-52
2022/11/12 07:41:10;;;;;;;1.13;1.13;;;;;;;7.01;100.00;101984.22;5000139;28;20460;-52
2022/11/12 07:43:38;;;;;;;0.93;0.90;;;;;;;7.02;100.00;101991.25;4999962;28;20476;-53
2022/11/12 07:46:13;;;;;;;0.77;0.73;;;;;;;6.97;100.00;101983.25;5007299;28;20476;-53
2022/11/12 07:48:40;;;;;;;1.00;0.93;;;;;;;7.10;100.00;101989.59;5010245;28;20464;-52
2022/11/12 07:51:12;;;;;;;1.20;1.13;;;;;;;7.00;100.00;101991.25;5011823;28;20802;-54
2022/11/12 07:53:40;;;;;;;1.10;0.97;;;;;;;7.06;100.00;101985.13;5009908;28;21024;-53
2022/11/12 07:56:10;;;;;;;3.00;1.47;;;;;;;7.02;100.00;101986.88;5005776;28;20495;-53
2022/11/12 07:58:36;;;;;;;0.83;0.50;;;;;;;7.08;100.00;101984.28;4993723;28;20460;-53
2022/11/12 08:01:25;;;;;;;2.00;0.80;;;;;;;7.15;100.00;101974.69;4993193;28;21310;-53
2022/11/12 08:03:52;;;;;;;2.80;0.73;;;;;;;7.10;100.00;101979.91;5007555;28;20456;-53
2022/11/12 08:06:18;;;;;;;0.60;0.57;;;;;;;7.23;100.00;101974.78;5011568;28;20546;-53
2022/11/12 08:08:45;;;;;;;1.60;1.50;;;;;;;7.46;100.00;101975.06;5011524;28;20954;-53
2022/11/12 08:11:11;;;;;;;1.17;1.00;;;;;;;7.47;100.00;101979.47;5011621;28;20460;-53
2022/11/12 08:13:38;;;;;;;1.40;1.30;;;;;;;7.21;100.00;101976.50;5010954;28;20933;-53
2022/11/12 08:16:04;;;;;;;1.73;1.00;;;;;;;7.25;100.00;101991.53;5002007;28;20994;-53
2022/11/12 08:18:32;;;;;;;4.03;1.80;;;;;;;7.22;100.00;101989.75;4997731;28;20864;-53
2022/11/12 08:21:01;;;;;;;1.33;0.90;;;;;;;7.04;100.00;101987.78;4994039;28;20459;-53
2022/11/12 08:23:28;;;;;;;4.90;3.83;;;;;;;7.22;100.00;101981.81;5009212;28;20449;-53
2022/11/12 08:26:04;;;;;;;2.90;2.57;;;;;;;7.24;100.00;101982.72;5007973;28;20481;-53
2022/11/12 08:28:35;;;;;;;0.70;0.70;;;;;;;7.21;100.00;101987.97;5006346;28;20511;-53
2022/11/12 08:31:04;;;;;;;0.60;0.57;;;;;;;7.22;100.00;101986.22;4993750;28;20511;-53
2022/11/12 08:33:31;;;;;;;1.07;0.97;;;;;;;7.29;100.00;101986.31;5009524;28;20838;-53
2022/11/12 08:35:57;;;;;;;0.90;0.90;;;;;;;7.17;100.00;101991.47;5004440;28;20487;-53
2022/11/12 08:38:24;;;;;;;0.60;0.57;;;;;;;7.24;100.00;101982.72;5001572;28;20459;-53
2022/11/12 08:40:51;;;;;;;1.20;1.10;;;;;;;7.30;100.00;101984.56;5007553;28;20460;-53
2022/11/12 08:43:17;;;;;;;1.40;1.10;;;;;;;7.45;100.00;101982.09;5019952;28;20445;-53
2022/11/12 08:45:44;;;;;;;1.63;1.53;;;;;;;7.41;100.00;101982.94;5005002;28;20468;-53
2022/11/12 08:48:13;;;;;;;1.53;1.43;;;;;;;7.61;100.00;101989.34;5005164;28;20782;-55
2022/11/12 08:50:40;;;;;;;0.73;0.60;;;;;;;7.42;100.00;101990.00;5009846;28;20538;-54
2022/11/12 08:53:11;;;;;;;2.67;1.53;;;;;;;7.40;100.00;101986.44;4994491;28;20494;-53
2022/11/12 08:55:38;;;;;;;0.90;0.90;;;;;;;7.38;100.00;101985.53;5005606;28;20507;-53
2022/11/12 08:58:05;;;;;;;1.20;1.10;;;;;;;7.27;100.00;101988.06;5003423;28;20530;-54
2022/11/12 09:00:35;;;;;;;1.73;1.63;;;;;;;7.29;100.00;101990.72;5008928;28;20456;-54
2022/11/12 09:03:03;;;;;;;1.40;1.30;;;;;;;7.19;100.00;101996.75;5010719;28;20448;-53
2022/11/12 09:05:29;;;;;;;1.80;1.33;;;;;;;7.33;100.00;101988.13;5006225;28;20452;-53
2022/11/12 09:08:00;;;;;;;1.87;1.77;;;;;;;7.45;100.00;101989.16;5009973;28;20464;-54
2022/11/12 09:10:27;;;;;;;1.53;1.27;;;;;;;7.49;100.00;101986.53;5006945;28;20945;-52
2022/11/12 09:12:54;;;;;;;1.57;1.47;;;;;;;7.31;100.00;101981.06;5004520;28;20536;-54
2022/11/12 09:15:22;;;;;;;2.40;2.30;;;;;;;7.33;100.00;101981.97;5004189;28;20514;-53
2022/11/12 09:18:10;;;;;;;2.20;1.30;;;;;;;7.44;100.00;101980.34;5002823;28;20564;-53
2022/11/12 09:20:36;;;;;;;1.73;1.57;;;;;;;7.47;100.00;101977.72;5010654;28;20452;-52
2022/11/12 09:23:09;;;;;;;1.50;1.40;;;;;;;7.49;100.00;101983.00;5007651;28;20445;-52
2022/11/12 09:25:36;;;;;;;1.03;0.97;;;;;;;7.47;100.00;101984.75;5001764;28;20543;-52
2022/11/12 09:28:10;;;;;;;0.90;0.90;;;;;;;7.49;100.00;101977.72;5004674;28;20456;-52
2022/11/12 09:30:40;;;;;;;2.07;1.87;;;;;;;7.39;100.00;101980.25;5002798;28;20461;-51
2022/11/12 09:33:06;;;;;;;1.93;1.83;;;;;;;7.50;100.00;101971.56;5005910;28;20898;-52
2022/11/12 09:35:33;;;;;;;12.27;2.60;;;;;;;7.49;100.00;101978.59;5010159;28;20452;-53
2022/11/12 09:37:59;;;;;;;2.10;1.90;;;;;;;7.51;100.00;101975.97;4996379;28;20512;-52
2022/11/12 09:40:52;;;;;;;2.20;1.80;;;;;;;7.55;100.00;101980.47;5010165;28;20531;-53
2022/11/12 09:43:34;;;;;;;1.03;1.03;;;;;;;7.65;100.00;101975.25;4979563;28;20832;-52
2022/11/12 09:46:18;;;;;;;1.97;1.33;;;;;;;7.45;100.00;101976.81;4997338;28;20477;-53
2022/11/12 09:49:03;;;;;;;2.03;1.83;;;;;;;7.43;100.00;101975.91;5010103;28;20475;-52
2022/11/12 09:51:34;;;;;;;3.13;2.83;;;;;;;7.65;100.00;101983.19;4998204;28;20464;-52
2022/11/12 09:54:12;;;;;;;2.33;1.23;;;;;;;7.61;100.00;101984.03;4996540;28;20572;-52
2022/11/12 09:56:39;;;;;;;1.00;1.00;;;;;;;7.90;100.00;101989.63;5010112;28;20476;-52
2022/11/12 09:59:12;;;;;;;3.40;2.13;;;;;;;7.21;100.00;101987.97;5009917;28;20463;-52
2022/11/12 10:01:41;;;;;;;1.17;0.90;;;;;;;7.12;100.00;101990.50;5005398;28;20884;-52
2022/11/12 10:04:33;;;;;;;1.00;1.00;;;;;;;7.25;100.00;101984.50;5009835;28;20536;-52
2022/11/12 10:07:08;;;;;;;1.80;1.70;;;;;;;7.36;100.00;101985.50;5007828;28;20480;-51
2022/11/12 10:09:54;;;;;;;2.77;2.57;;;;;;;7.68;100.00;101982.38;5000388;28;20865;-53
2022/11/12 10:12:36;;;;;;;1.90;1.37;;;;;;;7.80;100.00;101958.63;5008060;28;20456;-53
2022/11/12 10:18:31;;;;;;;1.37;1.27;;;;;;;7.69;100.00;101955.03;5009694;28;20452;-52
2022/11/12 10:21:16;;;;;;;1.90;1.80;;;;;;;7.86;100.00;101950.78;4999240;28;20962;-52
2022/11/12 10:23:45;;;;;;;3.87;2.40;;;;;;;7.83;100.00;101960.47;4986243;28;20450;-52
2022/11/12 10:26:18;;;;;;;1.57;1.47;;;;;;;7.84;100.00;101959.59;5002828;28;20481;-52
2022/11/12 10:28:55;;;;;;;1.63;0.90;;;;;;;7.91;100.00;101962.28;5003664;28;20534;-53
2022/11/12 10:31:21;;;;;;;2.10;1.10;;;;;;;7.89;100.00;101956.09;4996206;28;20453;-53
2022/11/12 10:33:47;;;;;;;1.70;1.60;;;;;;;7.96;100.00;101960.59;5009683;28;20492;-52
2022/11/12 10:36:26;;;;;;;1.37;1.20;;;;;;;8.18;100.00;101964.28;5009104;28;21134;-53
2022/11/12 10:38:54;;;;;;;4.40;3.03;;;;;;;8.17;100.00;101957.22;4998579;28;20457;-52
2022/11/12 10:41:26;;;;;;;10.80;2.90;;;;;;;8.08;100.00;101958.88;5008501;28;20463;-53
2022/11/12 10:44:13;;;;;;;1.40;1.30;;;;;;;7.94;100.00;101959.66;5001768;28;20458;-53
2022/11/12 10:46:40;;;;;;;3.00;2.37;;;;;;;8.11;100.00;101953.66;4998220;28;20473;-53
2022/11/12 10:49:22;;;;;;;1.90;1.80;;;;;;;7.94;100.00;101948.19;5010300;28;20968;-53
2022/11/12 10:51:58;;;;;;;2.70;2.50;;;;;;;8.39;100.00;101954.78;5004387;28;20510;-53
2022/11/12 10:54:37;;;;;;;1.63;1.50;;;;;;;8.22;100.00;101938.69;5009478;28;20563;-53
2022/11/12 10:57:18;;;;;;;3.10;1.97;;;;;;;8.26;100.00;101938.75;5013491;28;20475;-53
2022/11/12 10:59:44;;;;;;;2.83;2.63;;;;;;;8.18;100.00;101939.56;4997655;28;20485;-53
2022/11/12 11:02:17;;;;;;;5.33;2.10;;;;;;;8.09;100.00;101937.75;5009207;28;20522;-53
2022/11/12 11:04:45;;;;;;;2.17;1.97;;;;;;;8.15;100.00;101937.78;5013243;28;20492;-53
2022/11/12 11:07:25;;;;;;;1.23;1.23;;;;;;;7.99;100.00;101927.94;5008288;28;20545;-53
2022/11/12 11:09:56;;;;;;;2.13;1.93;;;;;;;8.05;100.00;101921.78;5012620;28;20856;-53
2022/11/12 11:12:29;;;;;;;1.90;1.80;;;;;;;8.11;100.00;101921.88;5012170;28;20895;-53
2022/11/12 11:15:06;;;;;;;1.97;1.87;;;;;;;8.07;100.00;101920.94;5011385;28;20562;-52
2022/11/12 11:17:33;;;;;;;3.20;2.90;;;;;;;8.06;100.00;101926.22;5012978;28;20484;-53
2022/11/12 11:20:00;;;;;;;2.00;1.90;;;;;;;8.14;100.00;101927.19;4998158;28;20464;-54
2022/11/12 11:22:45;;;;;;;3.13;2.83;;;;;;;8.17;100.00;101924.53;5009984;28;20460;-54
2022/11/12 11:25:21;;;;;;;2.50;1.77;;;;;;;7.82;100.00;101924.28;5007785;28;20461;-52
2022/11/12 11:28:02;;;;;;;3.87;2.73;;;;;;;7.97;100.00;101927.06;5012367;28;21024;-53
2022/11/12 11:30:29;;;;;;;1.90;1.80;;;;;;;7.94;100.00;101919.94;4994588;28;20453;-53
2022/11/12 11:33:22;;;;;;;3.50;2.93;;;;;;;8.27;100.00;101918.44;5005952;28;20461;-53
2022/11/12 11:36:17;;;;;;;2.17;2.00;;;;;;;8.32;100.00;101908.75;5005003;28;21064;-52
2022/11/12 11:39:02;;;;;;;2.10;1.47;;;;;;;8.48;100.00;101908.00;5008666;28;21334;-53
2022/11/12 11:41:29;;;;;;;5.43;2.30;;;;;;;8.40;100.00;101908.84;5012231;28;20912;-53
2022/11/12 11:44:05;;;;;;;1.63;1.53;;;;;;;8.14;100.00;101904.22;5008888;28;20825;-52
2022/11/12 11:47:05;;;;;;;4.00;3.13;;;;;;;8.14;100.00;101896.28;5001186;28;20480;-53
2022/11/12 11:49:34;;;;;;;2.63;1.93;;;;;;;8.15;100.00;101899.81;4999106;28;20819;-53
2022/11/12 11:52:23;;;;;;;1.83;1.57;;;;;;;8.42;100.00;101907.09;5010965;28;20460;-53
2022/11/12 11:54:55;;;;;;;1.43;1.33;;;;;;;8.26;100.00;101900.78;5000758;28;20492;-53
2022/11/12 11:57:28;;;;;;;2.57;2.37;;;;;;;8.24;100.00;101892.84;5003044;28;20838;-53
2022/11/12 12:00:19;;;;;;;6.20;2.23;;;;;;;8.49;100.00;101899.19;5005493;28;20461;-53
2022/11/12 12:03:11;;;;;;;1.83;1.73;;;;;;;8.70;100.00;101893.13;5002867;28;20456;-53